Time;durP1;ratioP1;P1;durP2;ratioP2;P2;SDS_P1;SDS_P2;PMS_P1;PMS_P2;Temp;Humidity;BMP_temperature;BMP_pressure;BME280_temperature;BME280_humidity;BME280_pressure;Samples;Min_cycle;Max_cycle;Signal;HPM_P1;HPM_P2
2023/08/17 00:01:29;;;;;;;4.95;2.40;;;;;;;21.14;100.00;96640.53;5031590;28;20629;-67
2023/08/17 00:03:56;;;;;;;3.00;2.30;;;;;;;21.06;100.00;96638.00;5027321;28;20271;-67
2023/08/17 00:06:22;;;;;;;2.30;2.17;;;;;;;21.09;100.00;96646.50;5027261;28;20208;-66
2023/08/17 00:08:49;;;;;;;5.72;2.65;;;;;;;20.90;100.00;96643.84;5018663;28;20200;-66
2023/08/17 00:11:16;;;;;;;2.63;2.28;;;;;;;20.94;100.00;96648.56;5027488;28;20258;-67
2023/08/17 00:13:43;;;;;;;5.20;2.20;;;;;;;20.92;100.00;96644.44;5023920;28;20207;-68
2023/08/17 00:16:09;;;;;;;2.40;2.22;;;;;;;20.87;100.00;96641.56;5017532;28;20204;-67
2023/08/17 00:18:36;;;;;;;3.88;2.53;;;;;;;20.79;100.00;96651.50;5020411;28;20243;-67
2023/08/17 00:21:03;;;;;;;3.15;2.25;;;;;;;20.79;100.00;96640.75;5042412;28;20233;-67
2023/08/17 00:23:30;;;;;;;3.05;2.13;;;;;;;20.82;100.00;96643.00;5046942;28;20230;-67
2023/08/17 00:25:56;;;;;;;2.25;2.05;;;;;;;20.79;100.00;96643.44;5045015;28;20264;-68
2023/08/17 00:28:27;;;;;;;2.80;2.00;;;;;;;20.83;100.00;96650.00;5043890;28;20202;-67
2023/08/17 00:30:53;;;;;;;2.17;2.00;;;;;;;20.78;100.00;96644.44;5043436;28;20199;-67
2023/08/17 00:33:20;;;;;;;2.65;2.20;;;;;;;20.78;100.00;96652.50;5045566;28;20207;-68
2023/08/17 00:35:46;;;;;;;2.50;2.30;;;;;;;20.73;100.00;96646.91;5043517;28;20678;-66
2023/08/17 00:38:14;;;;;;;2.88;2.25;;;;;;;20.69;100.00;96645.66;5044390;28;20545;-65
2023/08/17 00:40:41;;;;;;;3.70;2.20;;;;;;;20.70;100.00;96650.03;5043048;28;20536;-66
2023/08/17 00:43:08;;;;;;;6.15;2.60;;;;;;;20.63;100.00;96651.03;5063712;28;20255;-67
2023/08/17 00:45:36;;;;;;;4.25;2.55;;;;;;;20.64;100.00;96650.84;5063160;28;20202;-67
2023/08/17 00:48:04;;;;;;;3.30;2.40;;;;;;;20.64;100.00;96648.16;5046584;28;20214;-66
2023/08/17 00:50:31;;;;;;;2.72;2.47;;;;;;;20.61;100.00;96642.38;5045792;28;20294;-66
2023/08/17 00:52:58;;;;;;;4.95;2.30;;;;;;;20.63;100.00;96637.59;5042497;28;20647;-66
2023/08/17 00:55:25;;;;;;;2.53;2.25;;;;;;;20.59;100.00;96647.94;5041988;28;20215;-66
2023/08/17 00:57:52;;;;;;;2.92;2.70;;;;;;;20.54;100.00;96642.38;5041029;28;20208;-66
2023/08/17 01:00:19;;;;;;;4.45;2.53;;;;;;;20.57;100.00;96641.97;5041840;28;20242;-66
2023/08/17 01:02:47;;;;;;;2.40;2.20;;;;;;;20.56;100.00;96644.84;5045439;28;20246;-68
2023/08/17 01:05:14;;;;;;;3.35;3.05;;;;;;;20.58;100.00;96651.66;5046139;28;20211;-66
2023/08/17 01:07:40;;;;;;;2.63;2.42;;;;;;;20.58;100.00;96648.16;5044213;28;20199;-66
2023/08/17 01:10:07;;;;;;;2.58;2.38;;;;;;;20.55;100.00;96649.38;5044728;28;20207;-65
2023/08/17 01:12:39;;;;;;;2.88;2.60;;;;;;;20.55;100.00;96648.53;5044435;28;20273;-65
2023/08/17 01:15:09;;;;;;;2.88;2.67;;;;;;;20.48;100.00;96650.41;5037677;28;20192;-65
2023/08/17 01:17:40;;;;;;;4.90;2.60;;;;;;;20.52;100.00;96654.34;5028253;28;20204;-64
2023/08/17 01:20:12;;;;;;;2.80;2.60;;;;;;;20.55;100.00;96656.59;5019849;28;20220;-65
2023/08/17 01:22:41;;;;;;;5.28;2.88;;;;;;;20.54;100.00;96663.88;5025362;28;20199;-64
2023/08/17 01:25:10;;;;;;;2.90;2.70;;;;;;;20.55;100.00;96659.28;5031409;28;20303;-64
2023/08/17 01:27:40;;;;;;;2.78;2.40;;;;;;;20.48;100.00;96653.91;5043403;28;20207;-64
2023/08/17 01:30:07;;;;;;;2.67;2.47;;;;;;;20.48;100.00;96655.78;5041660;28;20199;-64
2023/08/17 01:32:38;;;;;;;3.00;2.70;;;;;;;20.39;100.00;96649.78;5043767;28;20207;-64
2023/08/17 01:35:10;;;;;;;2.80;2.47;;;;;;;20.44;100.00;96651.88;5043480;28;20216;-64
2023/08/17 01:37:39;;;;;;;2.92;2.45;;;;;;;20.35;100.00;96654.72;5042486;28;20199;-62
2023/08/17 01:40:07;;;;;;;2.67;2.47;;;;;;;20.37;100.00;96648.34;5043553;28;20236;-63
2023/08/17 01:42:35;;;;;;;6.35;2.78;;;;;;;20.31;100.00;96647.28;5042359;28;20203;-62
2023/08/17 01:45:02;;;;;;;3.22;3.03;;;;;;;20.25;100.00;96648.06;5043441;28;20216;-63
2023/08/17 01:47:28;;;;;;;5.00;2.90;;;;;;;20.24;100.00;96651.78;5042725;28;20219;-63
2023/08/17 01:49:59;;;;;;;3.70;2.63;;;;;;;20.14;100.00;96649.50;5043458;28;20207;-62
2023/08/17 01:52:26;;;;;;;3.17;2.83;;;;;;;20.14;100.00;96656.72;5042611;28;20931;-64
2023/08/17 01:54:53;;;;;;;4.28;2.90;;;;;;;20.13;100.00;96658.56;5043240;28;20203;-62
2023/08/17 01:57:19;;;;;;;3.80;2.50;;;;;;;20.12;100.00;96664.94;5042670;28;20203;-63
2023/08/17 01:59:47;;;;;;;2.78;2.45;;;;;;;20.15;100.00;96659.22;5042998;28;20694;-62
2023/08/17 02:02:14;;;;;;;2.67;2.35;;;;;;;20.14;100.00;96657.53;5042822;28;20207;-62
2023/08/17 02:04:41;;;;;;;2.90;2.70;;;;;;;20.08;100.00;96652.16;5043166;28;20679;-63
2023/08/17 02:07:07;;;;;;;2.92;2.70;;;;;;;20.08;100.00;96652.16;5042037;28;20303;-63
2023/08/17 02:09:34;;;;;;;2.60;2.40;;;;;;;20.06;100.00;96659.56;5043530;28;20211;-63
2023/08/17 02:12:00;;;;;;;2.97;2.78;;;;;;;20.10;100.00;96658.13;5042589;28;20203;-64
2023/08/17 02:14:27;;;;;;;3.15;2.30;;;;;;;20.05;100.00;96657.94;5042417;28;20200;-62
2023/08/17 02:16:54;;;;;;;3.28;2.75;;;;;;;19.96;100.00;96653.75;5041391;28;20261;-63
2023/08/17 02:19:21;;;;;;;3.30;2.90;;;;;;;19.96;100.00;96653.75;5024956;28;20643;-62
2023/08/17 02:21:48;;;;;;;3.67;2.90;;;;;;;20.00;100.00;96655.00;5043302;28;20196;-63
2023/08/17 02:24:14;;;;;;;2.95;2.75;;;;;;;20.00;100.00;96649.66;5048956;28;20207;-63
2023/08/17 02:26:48;;;;;;;3.67;2.72;;;;;;;20.01;100.00;96648.63;5047698;28;20199;-64
2023/08/17 02:29:14;;;;;;;3.92;2.53;;;;;;;19.94;100.00;96653.13;5048398;28;20195;-63
2023/08/17 02:31:41;;;;;;;3.28;2.97;;;;;;;19.94;100.00;96661.19;5045323;28;20208;-63
2023/08/17 02:34:09;;;;;;;2.90;2.58;;;;;;;19.95;100.00;96650.25;5045130;28;20214;-64
2023/08/17 02:36:35;;;;;;;4.30;3.10;;;;;;;19.91;100.00;96651.66;5043046;28;20231;-61
2023/08/17 02:39:03;;;;;;;2.60;2.50;;;;;;;19.96;100.00;96651.91;5043195;28;20261;-63
2023/08/17 02:41:30;;;;;;;4.00;2.90;;;;;;;19.97;100.00;96655.41;5044534;28;20200;-64
2023/08/17 02:43:56;;;;;;;3.40;2.95;;;;;;;19.94;100.00;96651.28;5060871;28;20849;-63
2023/08/17 02:46:23;;;;;;;3.70;2.95;;;;;;;19.91;100.00;96650.88;5064917;28;20179;-64
2023/08/17 02:48:49;;;;;;;6.15;3.38;;;;;;;19.93;100.00;96644.25;5053724;28;20200;-62
2023/08/17 02:51:17;;;;;;;3.72;3.13;;;;;;;19.85;100.00;96642.56;5042415;28;20222;-64
2023/08/17 02:53:44;;;;;;;3.58;2.90;;;;;;;19.81;100.00;96641.31;5042469;28;20292;-63
2023/08/17 02:56:11;;;;;;;3.40;3.10;;;;;;;19.83;100.00;96638.44;5042961;28;20206;-63
2023/08/17 02:58:40;;;;;;;5.05;3.10;;;;;;;19.86;100.00;96638.88;5040379;28;20654;-62
2023/08/17 03:01:07;;;;;;;4.43;3.28;;;;;;;19.84;100.00;96640.91;5042199;28;20606;-62
2023/08/17 03:03:34;;;;;;;5.47;3.40;;;;;;;19.79;100.00;96640.69;5041571;28;20231;-63
2023/08/17 03:06:01;;;;;;;3.38;3.17;;;;;;;19.78;100.00;96639.03;5024145;28;20234;-62
2023/08/17 03:08:28;;;;;;;5.05;3.40;;;;;;;19.76;100.00;96637.59;5041965;28;20214;-62
2023/08/17 03:10:55;;;;;;;4.60;3.10;;;;;;;19.76;100.00;96642.97;5041993;28;20207;-62
2023/08/17 03:13:22;;;;;;;5.38;3.35;;;;;;;19.76;100.00;96638.41;5040967;28;20222;-63
2023/08/17 03:15:48;;;;;;;5.47;3.35;;;;;;;19.74;100.00;96635.09;5042023;28;20207;-63
2023/08/17 03:18:15;;;;;;;4.00;3.65;;;;;;;19.73;100.00;96628.06;5040737;28;20210;-62
2023/08/17 03:20:41;;;;;;;4.13;3.13;;;;;;;19.70;100.00;96628.47;5041504;28;20223;-63
2023/08/17 03:23:08;;;;;;;3.50;3.20;;;;;;;19.65;100.00;96633.63;5041096;28;20547;-61
2023/08/17 03:25:37;;;;;;;4.13;3.70;;;;;;;19.60;100.00;96633.38;5041536;28;20211;-63
2023/08/17 03:28:04;;;;;;;4.22;3.55;;;;;;;19.58;100.00;96630.09;5041139;28;20207;-63
2023/08/17 03:30:33;;;;;;;5.45;3.50;;;;;;;19.62;100.00;96625.97;5041226;28;20531;-62
2023/08/17 03:32:59;;;;;;;3.80;3.42;;;;;;;19.58;100.00;96631.94;5041975;28;20199;-63
2023/08/17 03:35:26;;;;;;;4.43;3.60;;;;;;;19.64;100.00;96629.28;5041776;28;20554;-63
2023/08/17 03:37:53;;;;;;;4.38;3.70;;;;;;;19.59;100.00;96626.34;5040879;28;20608;-63
2023/08/17 03:40:19;;;;;;;4.38;3.70;;;;;;;19.57;100.00;96630.28;5041565;28;20589;-63
2023/08/17 03:42:47;;;;;;;5.65;3.83;;;;;;;19.53;100.00;96621.78;5040360;28;20207;-63
2023/08/17 03:45:14;;;;;;;3.80;3.50;;;;;;;19.56;100.00;96631.28;5041493;28;20207;-62
2023/08/17 03:47:41;;;;;;;4.32;3.92;;;;;;;19.54;100.00;96631.50;5040801;28;20652;-64
2023/08/17 03:50:09;;;;;;;8.00;6.82;;;;;;;19.52;100.00;96630.06;5041041;28;20608;-64
2023/08/17 03:52:37;;;;;;;5.03;4.50;;;;;;;19.41;100.00;96623.41;5041280;28;20208;-64
2023/08/17 03:55:07;;;;;;;3.90;3.67;;;;;;;19.34;100.00;96627.88;5041323;28;20219;-64
2023/08/17 03:57:33;;;;;;;4.22;3.83;;;;;;;19.35;100.00;96632.19;5040559;28;20606;-65
2023/08/17 04:00:01;;;;;;;4.18;3.88;;;;;;;19.37;100.00;96639.03;5040433;28;20227;-63
2023/08/17 04:02:28;;;;;;;4.07;3.70;;;;;;;19.34;100.00;96638.59;5040725;28;20225;-63
2023/08/17 04:04:54;;;;;;;4.32;3.88;;;;;;;19.36;100.00;96637.34;5041089;28;20628;-63
2023/08/17 04:07:22;;;;;;;3.90;3.63;;;;;;;19.38;100.00;96639.81;5041049;28;20200;-63
2023/08/17 04:09:48;;;;;;;6.32;4.20;;;;;;;19.35;100.00;96640.22;5039953;28;20237;-62
2023/08/17 04:12:16;;;;;;;4.05;3.60;;;;;;;19.32;100.00;96641.47;5040246;28;20199;-62
2023/08/17 04:14:42;;;;;;;7.63;3.95;;;;;;;19.31;100.00;96638.97;5040829;28;20543;-63
2023/08/17 04:17:10;;;;;;;4.10;3.60;;;;;;;19.27;100.00;96643.88;5040938;28;20646;-62
2023/08/17 04:19:36;;;;;;;4.40;3.60;;;;;;;19.28;100.00;96645.56;5040437;28;20698;-67
2023/08/17 04:22:03;;;;;;;4.00;3.63;;;;;;;19.25;100.00;96650.47;5041232;28;20207;-60
2023/08/17 04:24:31;;;;;;;4.85;3.80;;;;;;;19.21;100.00;96641.16;5041421;28;20662;-61
2023/08/17 04:26:57;;;;;;;4.68;3.85;;;;;;;19.22;100.00;96651.72;5039816;28;20834;-60
2023/08/17 04:29:24;;;;;;;4.18;3.78;;;;;;;19.24;100.00;96651.50;5047285;28;20203;-61
2023/08/17 04:31:50;;;;;;;4.10;3.80;;;;;;;19.23;100.00;96647.19;5052399;28;20202;-65
2023/08/17 04:34:18;;;;;;;4.22;3.90;;;;;;;19.25;100.00;96651.31;5060899;28;20291;-60
2023/08/17 04:36:45;;;;;;;3.92;3.60;;;;;;;19.26;100.00;96646.78;5055383;28;20221;-60
2023/08/17 04:39:17;;;;;;;6.78;3.50;;;;;;;19.24;100.00;96646.13;5056967;28;20215;-59
2023/08/17 04:41:43;;;;;;;4.45;3.70;;;;;;;19.26;100.00;96650.31;5049077;28;20645;-59
2023/08/17 04:44:10;;;;;;;3.92;3.63;;;;;;;19.28;100.00;96650.09;5046790;28;20548;-63
2023/08/17 04:46:36;;;;;;;5.00;3.50;;;;;;;19.32;100.00;96656.72;5047390;28;20202;-62
2023/08/17 04:49:03;;;;;;;6.25;3.67;;;;;;;19.35;100.00;96650.94;5046131;28;20200;-61
2023/08/17 04:51:32;;;;;;;4.03;3.50;;;;;;;19.37;100.00;96651.59;5047402;28;20207;-61
2023/08/17 04:54:02;;;;;;;3.92;3.50;;;;;;;19.36;100.00;96647.25;5050965;28;20229;-61
2023/08/17 04:56:29;;;;;;;5.18;3.88;;;;;;;19.39;100.00;96657.59;5053513;28;20644;-62
2023/08/17 04:58:56;;;;;;;4.80;3.75;;;;;;;19.47;100.00;96659.31;5051251;28;20200;-60
2023/08/17 05:01:23;;;;;;;3.63;3.33;;;;;;;19.50;100.00;96662.44;5047053;28;20235;-62
2023/08/17 05:03:49;;;;;;;4.70;3.55;;;;;;;19.52;100.00;96667.59;5043251;28;20237;-62
2023/08/17 05:06:16;;;;;;;3.80;3.50;;;;;;;19.58;100.00;96664.13;5045331;28;20215;-62
2023/08/17 05:08:44;;;;;;;4.40;3.75;;;;;;;19.68;100.00;96665.41;5044807;28;20211;-61
2023/08/17 05:11:12;;;;;;;4.40;3.88;;;;;;;19.73;100.00;96668.31;5044967;28;20210;-61
2023/08/17 05:13:39;;;;;;;3.95;3.40;;;;;;;19.78;100.00;96660.50;5043858;28;20222;-61
2023/08/17 05:16:06;;;;;;;3.60;3.30;;;;;;;19.83;100.00;96657.22;5044874;28;20196;-63
2023/08/17 05:18:32;;;;;;;5.72;4.07;;;;;;;19.90;100.00;96659.94;5045190;28;20208;-61
2023/08/17 05:20:58;;;;;;;4.40;3.78;;;;;;;19.96;100.00;96667.16;5045499;28;20231;-61
2023/08/17 05:23:25;;;;;;;5.18;3.17;;;;;;;19.98;100.00;96667.81;5044551;28;20206;-61
2023/08/17 05:25:55;;;;;;;4.82;3.30;;;;;;;20.08;100.00;96662.91;5044741;28;20229;-63
2023/08/17 05:28:21;;;;;;;4.97;3.83;;;;;;;20.17;100.00;96667.03;5044603;28;20275;-63
2023/08/17 05:30:49;;;;;;;4.18;3.53;;;;;;;20.31;100.00;96674.13;5044478;28;20213;-61
2023/08/17 05:33:16;;;;;;;3.75;3.45;;;;;;;20.44;100.00;96676.84;5042923;28;20209;-62
2023/08/17 05:35:43;;;;;;;3.80;3.50;;;;;;;20.51;100.00;96675.00;5043987;28;20211;-62
2023/08/17 05:38:10;;;;;;;4.30;3.53;;;;;;;20.68;100.00;96676.28;5043655;28;20302;-61
2023/08/17 05:40:36;;;;;;;3.90;3.53;;;;;;;20.92;100.00;96676.69;5042896;28;20231;-62
2023/08/17 05:43:07;;;;;;;4.97;3.45;;;;;;;21.09;100.00;96677.94;5044098;28;20207;-62
2023/08/17 05:45:36;;;;;;;4.43;3.53;;;;;;;21.24;100.00;96681.28;5044823;28;20203;-62
2023/08/17 05:48:03;;;;;;;3.38;3.17;;;;;;;21.44;100.00;96675.84;5043966;28;20203;-61
2023/08/17 05:50:30;;;;;;;3.80;3.42;;;;;;;21.51;100.00;96674.81;5043926;28;20213;-62
2023/08/17 05:52:57;;;;;;;3.47;3.17;;;;;;;21.60;100.00;96680.81;5042981;28;20209;-62
2023/08/17 05:55:23;;;;;;;3.45;3.20;;;;;;;21.57;100.00;96681.22;5044162;28;20236;-62
2023/08/17 05:57:50;;;;;;;3.67;3.40;;;;;;;21.63;100.00;96686.59;5044027;28;20541;-62
2023/08/17 06:00:18;;;;;;;4.10;3.42;;;;;;;21.74;100.00;96683.25;5042486;28;20809;-62
2023/08/17 06:02:49;;;;;;;3.45;3.03;;;;;;;21.80;100.00;96679.69;5042415;28;20607;-62
2023/08/17 06:05:16;;;;;;;4.22;3.40;;;;;;;21.94;100.00;96685.06;5043004;28;20266;-62
2023/08/17 06:07:42;;;;;;;4.80;3.00;;;;;;;22.06;100.00;96686.06;5043139;28;20199;-63
2023/08/17 06:10:11;;;;;;;3.13;2.92;;;;;;;22.20;100.00;96687.66;5043055;28;20211;-62
2023/08/17 06:12:37;;;;;;;3.20;2.90;;;;;;;22.36;100.00;96686.31;5043491;28;20298;-61
2023/08/17 06:15:05;;;;;;;5.13;2.90;;;;;;;22.55;100.00;96683.53;5042947;28;20552;-62
2023/08/17 06:17:33;;;;;;;3.55;2.97;;;;;;;22.75;100.00;96686.09;5042749;28;20208;-63
2023/08/17 06:19:59;;;;;;;7.45;3.08;;;;;;;22.92;100.00;96686.41;5043277;28;20223;-62
2023/08/17 06:22:26;;;;;;;4.00;3.00;;;;;;;22.93;100.00;96683.47;5043170;28;20524;-61
2023/08/17 06:24:53;;;;;;;3.35;2.80;;;;;;;23.22;100.00;96680.13;5044858;28;20212;-63
2023/08/17 06:27:19;;;;;;;3.72;3.00;;;;;;;23.35;100.00;96683.78;5050054;28;20274;-62
2023/08/17 06:29:46;;;;;;;5.25;3.10;;;;;;;23.60;99.86;96679.16;5046301;28;20196;-62
2023/08/17 06:32:13;;;;;;;5.43;2.67;;;;;;;23.74;98.81;96684.22;5043722;28;20214;-62
2023/08/17 06:34:41;;;;;;;2.92;2.67;;;;;;;23.90;98.32;96677.41;5042300;28;20207;-61
2023/08/17 06:37:07;;;;;;;3.28;2.90;;;;;;;23.97;95.61;96680.84;5042575;28;20644;-66
2023/08/17 06:39:36;;;;;;;2.90;2.70;;;;;;;24.10;95.53;96679.84;5059929;28;20247;-62
2023/08/17 06:42:03;;;;;;;4.18;2.92;;;;;;;23.96;94.66;96681.06;5057772;28;20219;-62
2023/08/17 06:44:30;;;;;;;3.38;2.50;;;;;;;24.17;93.40;96684.16;5054682;28;20203;-62
2023/08/17 06:46:59;;;;;;;3.80;2.90;;;;;;;24.33;94.40;96685.41;5048913;28;20303;-61
2023/08/17 06:49:27;;;;;;;3.20;2.83;;;;;;;24.45;93.83;96678.16;5051625;28;20201;-61
2023/08/17 06:51:58;;;;;;;3.60;2.85;;;;;;;24.47;93.70;96688.75;5025787;28;20203;-63
2023/08/17 06:54:24;;;;;;;4.10;3.13;;;;;;;24.60;92.48;96692.09;5042794;28;20210;-62
2023/08/17 06:56:50;;;;;;;3.70;3.30;;;;;;;24.72;91.14;96690.28;5041928;28;20214;-62
2023/08/17 06:59:17;;;;;;;4.03;3.08;;;;;;;24.85;89.64;96693.84;5041557;28;20227;-62
2023/08/17 07:01:44;;;;;;;3.10;2.90;;;;;;;25.12;90.19;96689.66;5041868;28;20257;-61
2023/08/17 07:04:11;;;;;;;3.67;2.90;;;;;;;25.41;86.06;96696.03;5042320;28;20242;-62
2023/08/17 07:06:37;;;;;;;5.97;3.13;;;;;;;25.52;84.65;96700.69;5041616;28;20250;-62
2023/08/17 07:09:05;;;;;;;3.22;2.60;;;;;;;25.69;85.07;96697.03;5042343;28;20204;-63
2023/08/17 07:11:32;;;;;;;5.43;3.03;;;;;;;25.74;83.09;96708.00;5041414;28;20531;-62
2023/08/17 07:13:58;;;;;;;3.40;2.92;;;;;;;25.98;82.80;96697.94;5043033;28;20770;-63
2023/08/17 07:16:25;;;;;;;7.38;3.10;;;;;;;26.07;79.19;96701.13;5042153;28;20215;-62
2023/08/17 07:18:51;;;;;;;3.30;3.00;;;;;;;26.15;84.78;96695.28;5043132;28;20199;-62
2023/08/17 07:21:18;;;;;;;3.30;3.00;;;;;;;26.18;84.20;96694.88;5042057;28;20227;-62
2023/08/17 07:23:45;;;;;;;2.67;2.47;;;;;;;26.00;79.60;96708.56;5042675;28;20531;-63
2023/08/17 07:26:13;;;;;;;3.97;3.08;;;;;;;26.06;83.55;96702.16;5041525;28;20199;-61
2023/08/17 07:28:40;;;;;;;5.28;2.80;;;;;;;26.06;80.16;96697.56;5040582;28;20207;-61
2023/08/17 07:31:06;;;;;;;2.92;2.67;;;;;;;26.27;80.51;96696.13;5041903;28;20664;-61
2023/08/17 07:33:33;;;;;;;3.00;2.80;;;;;;;26.25;79.69;96698.28;5040826;28;20222;-62
2023/08/17 07:35:59;;;;;;;4.10;2.60;;;;;;;26.33;80.39;96692.44;5041416;28;20207;-60
2023/08/17 07:38:26;;;;;;;3.88;2.88;;;;;;;26.58;80.59;96698.38;5042006;28;20210;-62
2023/08/17 07:40:52;;;;;;;3.78;2.88;;;;;;;26.76;78.44;96700.06;5041202;28;20596;-62
2023/08/17 07:43:20;;;;;;;4.40;2.97;;;;;;;26.88;76.35;96700.03;5040215;28;20204;-61
2023/08/17 07:45:47;;;;;;;5.32;3.15;;;;;;;27.15;77.84;96703.78;5041401;28;20223;-61
2023/08/17 07:48:13;;;;;;;3.78;2.90;;;;;;;27.50;77.68;96698.94;5041549;28;20203;-63
2023/08/17 07:50:39;;;;;;;3.20;2.90;;;;;;;27.51;75.04;96695.16;5041545;28;20199;-62
2023/08/17 07:53:06;;;;;;;3.85;2.90;;;;;;;27.77;74.62;96698.25;5041761;28;20199;-63
2023/08/17 07:55:32;;;;;;;6.32;3.30;;;;;;;27.80;76.73;96705.91;5041613;28;20529;-63
2023/08/17 07:57:59;;;;;;;4.85;3.15;;;;;;;27.89;76.04;96696.25;5040758;28;20207;-61
2023/08/17 08:00:27;;;;;;;5.50;3.20;;;;;;;28.03;75.09;96706.50;5041332;28;20216;-62
2023/08/17 08:02:53;;;;;;;7.72;3.60;;;;;;;28.22;75.63;96711.66;5041228;28;20260;-62
2023/08/17 08:05:20;;;;;;;13.40;4.38;;;;;;;28.50;72.52;96719.63;5039751;28;20200;-61
2023/08/17 08:07:46;;;;;;;4.15;3.75;;;;;;;28.57;70.23;96714.81;5041444;28;20203;-62
2023/08/17 08:10:14;;;;;;;4.88;3.35;;;;;;;28.70;72.07;96713.66;5041106;28;20204;-62
2023/08/17 08:12:40;;;;;;;4.32;3.53;;;;;;;28.52;74.32;96712.84;5040477;28;20203;-63
2023/08/17 08:15:08;;;;;;;6.15;3.72;;;;;;;28.46;73.21;96726.66;5040463;28;20207;-62
2023/08/17 08:17:36;;;;;;;3.78;3.17;;;;;;;28.51;73.97;96722.13;5042078;28;20210;-62
2023/08/17 08:20:03;;;;;;;7.35;3.50;;;;;;;28.31;74.18;96724.56;5041400;28;20536;-63
2023/08/17 08:22:30;;;;;;;4.65;3.47;;;;;;;28.24;75.02;96721.22;5041718;28;20309;-63
2023/08/17 08:24:57;;;;;;;5.18;3.25;;;;;;;28.36;76.52;96724.66;5041169;28;20222;-63
2023/08/17 08:27:24;;;;;;;3.67;3.38;;;;;;;28.48;77.20;96725.34;5041593;28;20203;-62
2023/08/17 08:29:50;;;;;;;4.68;3.60;;;;;;;28.54;72.40;96726.22;5041309;28;20200;-62
2023/08/17 08:32:17;;;;;;;6.57;3.58;;;;;;;28.21;74.24;96721.72;5041233;28;20214;-62
2023/08/17 08:34:45;;;;;;;4.25;3.33;;;;;;;28.35;76.47;96725.72;5041163;28;20696;-63
2023/08/17 08:37:12;;;;;;;4.28;3.63;;;;;;;28.23;73.74;96724.22;5040585;28;20530;-62
2023/08/17 08:39:49;;;;;;;3.47;3.28;;;;;;;27.83;74.57;96735.31;5040871;28;20204;-62
2023/08/17 08:42:16;;;;;;;6.25;3.75;;;;;;;27.83;77.89;96729.88;5040133;28;20238;-62
2023/08/17 08:44:45;;;;;;;4.82;3.70;;;;;;;27.88;78.19;96735.38;5041039;28;20207;-62
2023/08/17 08:47:12;;;;;;;6.53;3.40;;;;;;;27.84;74.87;96737.78;5042964;28;20230;-63
2023/08/17 08:49:40;;;;;;;4.07;3.78;;;;;;;27.77;78.35;96739.03;5047328;28;20204;-62
2023/08/17 08:52:09;;;;;;;6.10;4.10;;;;;;;27.64;77.76;96738.28;5043968;28;20211;-63
2023/08/17 08:54:36;;;;;;;5.72;3.97;;;;;;;27.47;78.19;96736.66;5046336;28;20208;-63
2023/08/17 08:57:07;;;;;;;4.47;3.75;;;;;;;27.26;79.74;96740.88;5044763;28;20207;-62
2023/08/17 08:59:36;;;;;;;5.88;4.18;;;;;;;27.17;80.37;96732.31;5045894;28;20206;-62
2023/08/17 09:02:04;;;;;;;7.30;3.70;;;;;;;27.44;81.69;96737.94;5042885;28;20281;-63
2023/08/17 09:04:30;;;;;;;4.47;3.50;;;;;;;27.80;78.29;96735.81;5044461;28;20261;-62
2023/08/17 09:06:57;;;;;;;4.28;3.70;;;;;;;27.96;77.26;96729.50;5043459;28;20203;-61
2023/08/17 09:09:25;;;;;;;3.85;3.53;;;;;;;28.26;75.10;96729.13;5042546;28;20211;-62
2023/08/17 09:11:53;;;;;;;4.00;3.70;;;;;;;28.56;77.65;96730.31;5040747;28;20227;-62
2023/08/17 09:14:20;;;;;;;4.50;4.10;;;;;;;28.81;72.07;96731.72;5041555;28;20553;-62
2023/08/17 09:16:46;;;;;;;4.30;3.97;;;;;;;28.63;74.87;96732.84;5041288;28;20199;-61
2023/08/17 09:19:13;;;;;;;4.03;3.72;;;;;;;28.87;75.67;96730.72;5041469;28;20211;-61
2023/08/17 09:21:40;;;;;;;5.88;3.88;;;;;;;29.23;74.92;96727.22;5043633;28;20219;-63
2023/08/17 09:24:08;;;;;;;4.88;4.03;;;;;;;29.38;71.61;96735.59;5045462;28;20230;-62
2023/08/17 09:26:37;;;;;;;4.75;4.32;;;;;;;29.42;68.49;96731.25;5044780;28;20199;-63
2023/08/17 09:29:17;;;;;;;6.28;4.38;;;;;;;29.75;71.56;96723.88;5044640;28;20203;-62
2023/08/17 09:31:44;;;;;;;4.82;4.15;;;;;;;29.95;68.00;96726.75;5044621;28;20666;-63
2023/08/17 09:34:10;;;;;;;4.60;4.10;;;;;;;29.88;71.21;96723.44;5044430;28;20694;-64
2023/08/17 09:36:37;;;;;;;5.13;3.70;;;;;;;29.53;68.61;96719.38;5044501;28;20627;-62
2023/08/17 09:39:04;;;;;;;4.78;4.35;;;;;;;29.11;70.06;96729.31;5044898;28;20208;-61
2023/08/17 09:41:30;;;;;;;4.60;4.25;;;;;;;28.94;70.16;96734.06;5043227;28;20227;-62
2023/08/17 09:43:58;;;;;;;4.95;4.47;;;;;;;28.72;71.16;96728.63;5043581;28;20303;-61
2023/08/17 09:46:26;;;;;;;5.07;4.20;;;;;;;28.88;74.36;96729.59;5044250;28;20211;-62
2023/08/17 09:48:53;;;;;;;7.32;4.43;;;;;;;29.10;76.00;96739.38;5043345;28;20650;-62
2023/08/17 09:51:20;;;;;;;4.90;4.45;;;;;;;29.49;75.64;96744.66;5043259;28;20211;-62
2023/08/17 09:53:52;;;;;;;4.97;4.65;;;;;;;29.54;72.52;96739.25;5043956;28;20210;-62
2023/08/17 09:56:20;;;;;;;8.52;5.10;;;;;;;29.72;70.93;96738.03;5043381;28;20230;-62
2023/08/17 09:58:46;;;;;;;5.93;4.60;;;;;;;29.81;73.51;96734.56;5042714;28;20206;-62
2023/08/17 10:01:16;;;;;;;5.63;4.80;;;;;;;30.12;71.29;96738.31;5042746;28;20227;-61
2023/08/17 10:03:45;;;;;;;7.93;4.50;;;;;;;30.38;71.46;96731.91;5042988;28;20239;-63
2023/08/17 10:06:14;;;;;;;5.50;4.40;;;;;;;30.27;69.92;96730.22;5042684;28;20631;-62
2023/08/17 10:08:44;;;;;;;5.45;4.85;;;;;;;29.78;69.99;96742.44;5042602;28;20603;-63
2023/08/17 10:11:11;;;;;;;5.75;4.60;;;;;;;29.32;70.25;96728.44;5043044;28;20295;-63
2023/08/17 10:13:41;;;;;;;5.20;4.70;;;;;;;29.06;73.13;96730.09;5042209;28;20644;-63
2023/08/17 10:16:11;;;;;;;6.63;4.40;;;;;;;28.81;74.39;96727.09;5042567;28;20207;-63
2023/08/17 10:18:46;;;;;;;7.15;4.60;;;;;;;29.05;74.86;96727.63;5043379;28;20199;-62
2023/08/17 10:21:17;;;;;;;5.35;4.70;;;;;;;28.85;71.93;96725.50;5042107;28;20253;-63
2023/08/17 10:23:45;;;;;;;7.72;4.82;;;;;;;28.71;73.14;96726.16;5043384;28;20215;-63
2023/08/17 10:26:12;;;;;;;9.93;4.72;;;;;;;28.65;71.65;96723.38;5042582;28;20268;-63
2023/08/17 10:28:39;;;;;;;4.78;4.47;;;;;;;28.81;72.68;96709.94;5048830;28;20204;-62
2023/08/17 10:31:07;;;;;;;5.50;4.68;;;;;;;28.93;74.52;96707.91;5047652;28;20199;-63
2023/08/17 10:33:33;;;;;;;7.95;4.22;;;;;;;29.14;71.55;96709.72;5040953;28;20219;-63
2023/08/17 10:36:01;;;;;;;7.85;5.30;;;;;;;29.05;70.95;96714.81;5042737;28;20199;-62
2023/08/17 10:38:28;;;;;;;4.88;4.40;;;;;;;29.09;71.03;96712.41;5042572;28;20199;-62
2023/08/17 10:41:09;;;;;;;5.38;4.53;;;;;;;29.13;74.00;96713.53;5042643;28;20206;-62
2023/08/17 10:43:36;;;;;;;4.60;4.20;;;;;;;29.49;70.71;96717.41;5042039;28;20249;-62
2023/08/17 10:46:16;;;;;;;4.97;4.10;;;;;;;29.97;65.06;96714.50;5046446;28;20340;-63
2023/08/17 10:48:44;;;;;;;4.60;4.20;;;;;;;30.43;66.08;96707.38;5043355;28;20207;-62
2023/08/17 10:51:13;;;;;;;6.88;4.40;;;;;;;30.63;64.40;96700.38;5046873;28;20200;-64
2023/08/17 10:53:42;;;;;;;5.18;4.63;;;;;;;30.97;63.97;96707.84;5046469;28;20224;-62
2023/08/17 10:56:12;;;;;;;4.00;3.70;;;;;;;30.82;58.28;96706.97;5050480;28;20195;-64
2023/08/17 10:58:38;;;;;;;5.32;4.35;;;;;;;30.49;61.08;96700.88;5042842;28;20207;-63
2023/08/17 11:01:05;;;;;;;5.13;4.18;;;;;;;30.54;61.19;96703.59;5042525;28;20226;-62
2023/08/17 11:03:33;;;;;;;5.07;4.57;;;;;;;30.34;64.49;96703.50;5042642;28;20235;-63
2023/08/17 11:06:16;;;;;;;5.43;4.00;;;;;;;30.42;56.06;96703.03;5041485;28;20203;-62
2023/08/17 11:08:52;;;;;;;3.72;3.50;;;;;;;30.87;58.62;96696.88;5042223;28;20278;-62
2023/08/17 11:11:21;;;;;;;6.95;4.50;;;;;;;30.54;58.83;96689.97;5041733;28;20742;-63
2023/08/17 11:13:48;;;;;;;4.18;3.78;;;;;;;30.36;60.75;96695.88;5042214;28;20220;-63
2023/08/17 11:16:15;;;;;;;4.40;4.00;;;;;;;30.44;59.77;96692.66;5041646;28;20195;-63
2023/08/17 11:18:42;;;;;;;3.90;3.60;;;;;;;30.36;57.22;96684.94;5041893;28;20215;-63
2023/08/17 11:21:10;;;;;;;4.50;4.10;;;;;;;30.45;59.45;96694.31;5041695;28;20204;-62
2023/08/17 11:23:38;;;;;;;4.95;4.28;;;;;;;30.51;58.72;96687.78;5041248;28;20245;-63
2023/08/17 11:26:06;;;;;;;4.57;4.20;;;;;;;30.21;61.29;96692.25;5041586;28;20203;-64
2023/08/17 11:28:36;;;;;;;5.10;4.18;;;;;;;30.40;59.64;96687.97;5041269;28;20215;-62
2023/08/17 11:31:04;;;;;;;4.10;3.80;;;;;;;30.54;60.32;96684.50;5042690;28;20304;-64